Time;durP1;ratioP1;P1;durP2;ratioP2;P2;SDS_P1;SDS_P2;PMS_P1;PMS_P2;Temp;Humidity;BMP_temperature;BMP_pressure;BME280_temperature;BME280_humidity;BME280_pressure;Samples;Min_cycle;Max_cycle;Signal;HPM_P1;HPM_P2
2022/01/01 00:01:42;;;;;;;20.00;8.50;;;;;;;6.95;79.49;98680.05;102203;1313;96491;-70
2022/01/01 00:04:10;;;;;;;22.40;9.70;;;;;;;6.95;79.50;98675.29;102226;1313;110122;-70
2022/01/01 00:06:38;;;;;;;21.70;9.60;;;;;;;6.95;79.32;98676.70;102300;1310;96482;-70
2022/01/01 00:09:06;;;;;;;22.80;9.70;;;;;;;6.92;79.22;98673.88;102142;1313;107878;-72
2022/01/01 00:11:34;;;;;;;23.10;9.70;;;;;;;6.91;79.59;98670.46;102230;1309;96535;-72
2022/01/01 00:14:02;;;;;;;22.20;10.00;;;;;;;6.90;79.47;98670.31;102257;1313;96477;-71
2022/01/01 00:16:31;;;;;;;25.20;10.60;;;;;;;6.91;79.41;98672.72;102041;1312;108716;-72
2022/01/01 00:18:59;;;;;;;23.90;9.90;;;;;;;6.92;79.42;98673.87;102030;1312;96511;-73
2022/01/01 00:21:27;;;;;;;24.30;10.50;;;;;;;6.93;79.44;98672.41;102138;1312;107701;-73
2022/01/01 00:23:54;;;;;;;25.70;11.20;;;;;;;6.91;79.41;98671.68;102128;1313;94547;-73
2022/01/01 00:26:22;;;;;;;23.20;9.80;;;;;;;6.90;79.34;98670.71;102197;1313;97087;-73
2022/01/01 00:28:50;;;;;;;22.90;10.30;;;;;;;6.87;79.18;98679.52;102205;1312;109973;-72
2022/01/01 00:31:18;;;;;;;24.50;10.80;;;;;;;6.87;79.49;98679.02;102223;1312;96630;-72
2022/01/01 00:33:46;;;;;;;26.50;10.60;;;;;;;6.88;79.58;98679.46;102039;1312;107684;-72
2022/01/01 00:36:14;;;;;;;23.80;10.60;;;;;;;6.90;79.52;98683.56;102174;1312;96582;-73
2022/01/01 00:38:42;;;;;;;23.60;10.70;;;;;;;6.91;79.39;98685.05;102214;1312;96577;-73
2022/01/01 00:41:10;;;;;;;21.20;10.30;;;;;;;6.93;79.50;98675.23;102198;1313;110049;-72
2022/01/01 00:43:38;;;;;;;22.90;10.30;;;;;;;6.96;79.59;98666.79;102034;1313;94378;-71
2022/01/01 00:46:06;;;;;;;24.50;11.60;;;;;;;6.98;79.58;98678.08;102133;1313;106712;-71
2022/01/01 00:48:34;;;;;;;25.50;10.90;;;;;;;7.01;79.64;98683.20;102109;1313;96500;-71
2022/01/01 00:51:23;;;;;;;23.60;11.50;;;;;;;7.05;79.65;98677.14;102188;1313;96438;-71
2022/01/01 00:53:50;;;;;;;23.90;10.90;;;;;;;7.09;79.55;98670.55;102012;1315;109932;-71
2022/01/01 00:56:18;;;;;;;24.70;11.20;;;;;;;7.14;79.76;98681.17;102137;1312;96647;-71
2022/01/01 00:58:46;;;;;;;23.40;10.40;;;;;;;7.20;79.66;98684.98;102244;1313;107813;-71
2022/01/01 01:01:14;;;;;;;23.10;11.90;;;;;;;7.26;79.66;98679.65;102254;1312;96616;-71
2022/01/01 01:03:42;;;;;;;29.10;13.80;;;;;;;7.32;79.68;98675.59;102192;1313;95641;-71
2022/01/01 01:06:12;;;;;;;23.70;11.10;;;;;;;7.38;79.84;98673.42;102150;1316;109871;-71
2022/01/01 01:08:41;;;;;;;25.50;12.00;;;;;;;7.44;79.87;98676.91;102170;1311;96487;-71
2022/01/01 01:11:09;;;;;;;25.10;11.10;;;;;;;7.49;79.80;98675.02;102166;1316;107762;-72
2022/01/01 01:13:40;;;;;;;24.80;11.50;;;;;;;7.54;79.87;98681.17;102153;1313;96641;-72
2022/01/01 01:16:08;;;;;;;23.60;10.90;;;;;;;7.59;80.09;98685.59;102151;1312;96480;-72
2022/01/01 01:18:36;;;;;;;23.70;11.30;;;;;;;7.66;80.04;98677.08;102178;1312;109943;-71
2022/01/01 01:21:06;;;;;;;24.50;10.50;;;;;;;7.73;80.48;98676.92;102222;1313;94906;-72
2022/01/01 01:23:34;;;;;;;26.20;11.50;;;;;;;7.84;80.70;98677.92;102079;1316;107594;-72
2022/01/01 01:26:02;;;;;;;25.60;11.90;;;;;;;7.99;80.57;98679.29;102057;1312;96538;-71
2022/01/01 01:28:31;;;;;;;23.20;10.10;;;;;;;8.14;80.96;98683.52;102156;1310;96513;-71
2022/01/01 01:30:59;;;;;;;23.20;11.30;;;;;;;8.32;81.15;98672.96;102172;1311;109990;-70
2022/01/01 01:33:27;;;;;;;25.60;10.20;;;;;;;8.45;80.74;98669.00;102164;1312;96609;-71
2022/01/01 01:35:55;;;;;;;22.70;9.00;;;;;;;8.54;80.54;98667.89;102135;1309;108163;-71
2022/01/01 01:38:23;;;;;;;23.90;10.20;;;;;;;8.62;80.62;98669.97;102190;1312;96525;-71
2022/01/01 01:40:52;;;;;;;24.80;9.40;;;;;;;8.71;81.17;98669.75;102176;1310;96470;-71
2022/01/01 01:43:22;;;;;;;22.40;9.20;;;;;;;8.78;80.90;98667.95;102175;1312;110057;-71
2022/01/01 01:45:51;;;;;;;24.60;9.80;;;;;;;8.85;80.94;98667.88;102171;1318;96582;-71
2022/01/01 01:48:20;;;;;;;21.70;8.90;;;;;;;8.89;80.88;98660.85;102190;1313;107854;-71
2022/01/01 01:50:48;;;;;;;25.60;10.30;;;;;;;8.94;81.47;98668.45;102151;1311;96475;-71
2022/01/01 01:53:16;;;;;;;23.50;10.10;;;;;;;8.98;81.00;98669.57;102098;1313;94268;-71
2022/01/01 01:55:44;;;;;;;22.90;10.00;;;;;;;9.01;81.05;98666.14;102258;1312;110023;-72
2022/01/01 01:58:12;;;;;;;24.20;10.20;;;;;;;9.04;81.05;98670.51;102212;1316;94513;-72
2022/01/01 02:01:20;;;;;;;23.40;9.90;;;;;;;9.06;80.90;98668.30;102189;1312;107750;-71
2022/01/01 02:03:37;;;;;;;23.00;10.10;;;;;;;9.07;80.94;98665.70;102138;1317;96606;-71
2022/01/01 02:06:08;;;;;;;23.70;10.20;;;;;;;9.08;81.02;98672.70;102181;1312;96496;-71
2022/01/01 02:08:36;;;;;;;22.60;9.70;;;;;;;9.10;81.14;98676.81;102202;1313;108596;-71
2022/01/01 02:11:04;;;;;;;23.40;10.40;;;;;;;9.13;80.89;98681.42;102207;1316;96371;-70
2022/01/01 02:13:37;;;;;;;23.40;11.20;;;;;;;9.14;81.00;98682.38;102200;1313;107695;-71
2022/01/01 02:18:45;;;;;;;22.80;10.50;;;;;;;9.18;80.96;98685.99;102076;1308;96565;-70
2022/01/01 02:21:13;;;;;;;23.20;10.30;;;;;;;9.18;81.16;98682.56;102121;1312;111448;-71
2022/01/01 02:23:44;;;;;;;24.70;10.70;;;;;;;9.20;81.03;98689.86;102180;1312;96617;-72
2022/01/01 02:26:15;;;;;;;25.20;11.20;;;;;;;9.22;80.88;98693.83;102107;1312;107767;-70
2022/01/01 02:28:45;;;;;;;21.70;10.10;;;;;;;9.24;80.96;98689.29;102061;1312;96566;-70
2022/01/01 02:31:15;;;;;;;21.50;9.50;;;;;;;9.25;80.98;98691.85;102026;1312;94400;-71
2022/01/01 02:33:44;;;;;;;23.70;10.50;;;;;;;9.26;80.97;98697.23;102034;1315;109974;-71
2022/01/01 02:36:12;;;;;;;21.60;9.90;;;;;;;9.26;80.94;98697.62;102012;1313;94419;-69
2022/01/01 02:38:40;;;;;;;24.70;10.30;;;;;;;9.26;81.07;98693.71;101962;1312;107659;-70
2022/01/01 02:41:08;;;;;;;22.60;10.50;;;;;;;9.27;80.95;98702.35;101979;1312;94268;-70
2022/01/01 02:43:54;;;;;;;22.90;10.30;;;;;;;9.27;81.08;98700.03;102023;1313;94462;-70
2022/01/01 02:46:22;;;;;;;21.50;9.80;;;;;;;9.28;81.11;98701.55;102008;1312;110942;-70
2022/01/01 02:48:50;;;;;;;23.00;10.50;;;;;;;9.28;81.21;98699.57;101976;1312;96510;-69
2022/01/01 02:51:17;;;;;;;22.90;10.10;;;;;;;9.28;81.34;98703.65;101990;1312;107502;-70
2022/01/01 02:53:45;;;;;;;22.70;10.80;;;;;;;9.29;81.17;98704.84;102017;1312;96641;-70
2022/01/01 02:56:13;;;;;;;22.50;10.30;;;;;;;9.29;81.08;98699.87;102017;1315;94223;-71
2022/01/01 02:58:41;;;;;;;22.30;10.10;;;;;;;9.31;81.26;98703.61;102016;1312;109959;-71
2022/01/01 03:01:10;;;;;;;21.40;9.40;;;;;;;9.31;81.08;98706.83;102083;1312;96605;-71
2022/01/01 03:03:38;;;;;;;22.30;10.30;;;;;;;9.31;81.17;98709.65;102026;1312;107751;-70
2022/01/01 03:06:06;;;;;;;22.20;9.90;;;;;;;9.31;81.11;98712.34;102060;1313;96604;-72
2022/01/01 03:08:34;;;;;;;22.90;10.10;;;;;;;9.31;81.21;98719.90;102257;1309;96420;-73
2022/01/01 03:11:03;;;;;;;22.90;9.50;;;;;;;9.31;81.23;98713.70;102119;1312;109884;-71
2022/01/01 03:13:31;;;;;;;24.20;10.10;;;;;;;9.32;81.17;98715.77;102193;1316;96565;-71
2022/01/01 03:16:33;;;;;;;22.70;9.00;;;;;;;9.35;81.26;98713.60;103636;1297;635773;-71
2022/01/01 03:19:01;;;;;;;24.50;10.30;;;;;;;9.35;81.19;98719.29;105418;1284;94299;-71
2022/01/01 03:21:29;;;;;;;23.60;10.60;;;;;;;9.35;81.29;98722.84;105425;1284;94228;-71
2022/01/01 03:23:57;;;;;;;25.80;9.80;;;;;;;9.35;81.27;98721.23;105475;1284;106462;-72
2022/01/01 03:26:25;;;;;;;23.70;9.80;;;;;;;9.34;81.25;98721.63;105422;1284;94226;-71
2022/01/01 03:28:53;;;;;;;23.10;10.00;;;;;;;9.33;81.22;98724.17;105264;1284;111437;-71
2022/01/01 03:31:24;;;;;;;21.00;9.80;;;;;;;9.32;81.31;98722.51;105692;1284;94334;-68
2022/01/01 03:33:53;;;;;;;24.90;10.30;;;;;;;9.31;81.42;98724.17;105699;1283;94081;-71
2022/01/01 03:36:20;;;;;;;20.60;9.00;;;;;;;9.31;81.49;98730.15;105698;1284;106625;-71
2022/01/01 03:38:48;;;;;;;22.10;9.60;;;;;;;9.30;81.47;98730.96;105707;1282;93917;-71
2022/01/01 03:41:16;;;;;;;22.40;9.70;;;;;;;9.30;81.62;98730.94;105685;1284;107761;-72
2022/01/01 03:43:44;;;;;;;23.50;9.90;;;;;;;9.31;81.48;98728.55;105690;1284;94215;-71
2022/01/01 03:46:13;;;;;;;21.60;9.20;;;;;;;9.32;81.44;98733.13;105712;1284;95175;-70
2022/01/01 03:48:41;;;;;;;20.30;9.00;;;;;;;9.31;81.58;98731.77;105760;1284;108195;-70
2022/01/01 03:51:09;;;;;;;22.50;9.60;;;;;;;9.30;81.42;98731.98;105730;1283;95006;-70
2022/01/01 03:53:37;;;;;;;21.60;9.30;;;;;;;9.32;81.58;98735.08;105706;1282;107632;-70
2022/01/01 03:56:05;;;;;;;23.50;10.50;;;;;;;9.33;81.57;98739.09;105712;1284;95176;-71
2022/01/01 03:58:34;;;;;;;23.30;10.00;;;;;;;9.33;81.65;98743.12;105745;1283;95170;-71
2022/01/01 04:01:02;;;;;;;22.60;9.50;;;;;;;9.34;81.58;98748.02;105748;1282;108700;-70
2022/01/01 04:03:31;;;;;;;20.30;8.40;;;;;;;9.35;81.52;98747.05;105952;1276;94253;-71
2022/01/01 04:05:58;;;;;;;19.60;8.50;;;;;;;9.36;81.49;98754.42;105977;1276;106596;-71
2022/01/01 04:08:29;;;;;;;22.90;9.90;;;;;;;9.35;81.66;98756.94;105954;1276;95229;-70
2022/01/01 04:10:57;;;;;;;20.10;8.20;;;;;;;9.34;81.60;98761.60;105979;1277;95195;-69
2022/01/01 04:13:25;;;;;;;19.70;8.50;;;;;;;9.34;81.64;98759.01;105957;1277;108261;-70
2022/01/01 04:15:53;;;;;;;22.20;8.70;;;;;;;9.32;81.69;98763.69;105999;1275;95169;-70
2022/01/01 04:18:38;;;;;;;20.30;8.10;;;;;;;9.33;81.59;98764.51;105993;1277;107611;-71
2022/01/01 04:21:10;;;;;;;21.50;9.00;;;;;;;9.34;81.56;98768.33;105965;1276;95132;-69
2022/01/01 04:23:40;;;;;;;19.70;8.40;;;;;;;9.35;81.58;98771.80;106006;1277;95147;-67
2022/01/01 04:26:09;;;;;;;18.70;7.90;;;;;;;9.37;81.61;98775.40;105990;1277;108815;-71
2022/01/01 04:28:40;;;;;;;19.20;8.20;;;;;;;9.37;81.80;98774.10;106034;1276;95273;-70
2022/01/01 04:31:08;;;;;;;18.70;7.60;;;;;;;9.38;81.70;98775.86;105976;1277;107794;-70
2022/01/01 04:33:37;;;;;;;20.70;8.60;;;;;;;9.37;81.69;98778.38;106064;1276;95304;-70
2022/01/01 04:36:05;;;;;;;19.30;7.80;;;;;;;9.37;81.69;98780.71;105988;1277;95069;-70
2022/01/01 04:38:38;;;;;;;19.80;7.90;;;;;;;9.37;81.78;98780.52;106111;1277;108742;-70
2022/01/01 04:41:12;;;;;;;20.20;8.00;;;;;;;9.37;81.80;98790.60;106137;1276;95253;-69
2022/01/01 04:43:48;;;;;;;18.30;7.50;;;;;;;9.37;81.82;98793.77;106034;1277;107826;-70
2022/01/01 04:46:16;;;;;;;21.00;7.90;;;;;;;9.36;81.80;98790.09;106128;1275;95201;-71
2022/01/01 04:48:45;;;;;;;17.50;7.40;;;;;;;9.37;81.81;98791.98;106070;1276;94276;-71
2022/01/01 04:51:14;;;;;;;18.20;7.20;;;;;;;9.38;81.81;98790.49;106146;1277;107593;-71
2022/01/01 04:53:45;;;;;;;21.50;9.10;;;;;;;9.39;81.83;98792.73;106031;1277;94944;-71
2022/01/01 04:56:18;;;;;;;19.40;9.00;;;;;;;9.39;81.71;98792.03;105998;1275;106679;-71
2022/01/01 04:58:47;;;;;;;21.20;9.30;;;;;;;9.40;81.74;98797.29;106028;1274;95232;-71
2022/01/01 05:01:18;;;;;;;21.70;9.20;;;;;;;9.40;81.74;98800.83;106111;1277;95377;-70
2022/01/01 05:03:48;;;;;;;20.00;8.30;;;;;;;9.38;81.91;98806.44;106035;1277;108789;-70
2022/01/01 05:06:18;;;;;;;20.20;8.00;;;;;;;9.37;81.92;98804.05;106026;1275;95248;-70
2022/01/01 05:08:46;;;;;;;20.40;8.40;;;;;;;9.38;82.02;98813.52;105984;1277;107782;-70
2022/01/01 05:11:13;;;;;;;18.90;7.80;;;;;;;9.39;81.99;98813.59;105979;1276;94251;-68
2022/01/01 05:13:41;;;;;;;19.80;8.50;;;;;;;9.41;81.96;98824.48;106046;1277;95886;-72
2022/01/01 05:16:14;;;;;;;20.40;7.60;;;;;;;9.40;81.93;98822.21;106050;1277;108272;-73
2022/01/01 05:18:42;;;;;;;20.00;7.90;;;;;;;9.42;81.93;98829.05;105977;1276;95125;-71
2022/01/01 05:21:11;;;;;;;18.00;8.50;;;;;;;9.41;81.87;98825.91;106032;1277;107674;-71
2022/01/01 05:23:39;;;;;;;18.90;7.60;;;;;;;9.41;81.88;98832.48;106051;1276;95294;-70
2022/01/01 05:26:07;;;;;;;18.80;7.90;;;;;;;9.39;81.78;98835.36;106082;1274;94258;-70
2022/01/01 05:28:35;;;;;;;18.80;7.70;;;;;;;9.40;81.97;98834.27;106012;1276;108667;-70
2022/01/01 05:31:04;;;;;;;17.90;6.90;;;;;;;9.39;82.02;98836.48;106010;1275;95194;-69
2022/01/01 05:33:34;;;;;;;18.10;8.10;;;;;;;9.38;82.06;98834.76;106084;1277;107735;-70
2022/01/01 05:36:02;;;;;;;17.50;7.10;;;;;;;9.38;81.99;98841.48;106077;1277;95946;-69
2022/01/01 05:38:30;;;;;;;16.90;6.50;;;;;;;9.38;82.02;98843.25;106080;1277;95182;-70
2022/01/01 05:40:58;;;;;;;16.10;5.80;;;;;;;9.37;82.18;98847.02;105953;1277;108645;-70
2022/01/01 05:43:25;;;;;;;15.60;6.10;;;;;;;9.35;82.24;98851.59;105978;1277;95173;-70
2022/01/01 05:45:53;;;;;;;15.30;6.60;;;;;;;9.35;82.04;98849.87;106027;1277;107954;-70
2022/01/01 05:48:23;;;;;;;15.80;6.30;;;;;;;9.36;82.11;98852.80;106087;1276;95265;-71
2022/01/01 05:50:52;;;;;;;19.00;7.30;;;;;;;9.37;82.17;98857.30;106068;1277;95278;-71
2022/01/01 05:53:19;;;;;;;16.90;7.50;;;;;;;9.38;82.13;98860.64;105985;1277;108661;-70
2022/01/01 05:55:49;;;;;;;17.80;7.50;;;;;;;9.38;82.10;98858.83;106010;1277;95166;-70
2022/01/01 05:58:18;;;;;;;18.10;7.50;;;;;;;9.38;82.12;98860.40;105954;1277;107711;-71
2022/01/01 06:00:46;;;;;;;16.70;6.30;;;;;;;9.39;81.98;98868.13;105961;1274;95182;-70
2022/01/01 06:03:17;;;;;;;16.40;6.70;;;;;;;9.39;81.99;98872.18;106027;1277;95221;-69
2022/01/01 06:05:51;;;;;;;17.80;6.50;;;;;;;9.40;82.13;98864.91;105996;1275;108682;-69
2022/01/01 06:08:19;;;;;;;;;;;;;;;9.40;82.08;98864.17;105970;1277;95301;-69
2022/01/01 06:10:47;;;;;;;16.50;6.70;;;;;;;9.40;82.15;98864.55;105943;1277;108330;-69
2022/01/01 06:13:15;;;;;;;16.50;6.70;;;;;;;9.40;82.00;98867.70;105986;1276;94268;-70
2022/01/01 06:15:43;;;;;;;16.50;6.20;;;;;;;9.41;82.10;98870.33;105870;1276;95243;-70
2022/01/01 06:18:11;;;;;;;15.30;6.40;;;;;;;9.42;82.10;98865.30;106013;1276;109446;-70
2022/01/01 06:20:42;;;;;;;15.40;6.90;;;;;;;9.42;82.04;98876.98;106031;1276;94331;-70
2022/01/01 06:23:11;;;;;;;18.30;6.70;;;;;;;9.41;82.36;98882.86;105958;1277;107863;-71
2022/01/01 06:25:38;;;;;;;15.50;6.30;;;;;;;9.41;82.17;98886.42;105973;1276;95174;-70
2022/01/01 06:28:06;;;;;;;16.60;6.80;;;;;;;9.41;82.11;98891.36;106044;1277;95171;-71
2022/01/01 06:30:34;;;;;;;13.30;5.60;;;;;;;9.42;82.13;98892.73;106012;1276;108521;-70
2022/01/01 06:33:12;;;;;;;15.10;6.20;;;;;;;9.42;82.24;98892.20;105988;1277;95249;-72
2022/01/01 06:35:44;;;;;;;15.00;6.40;;;;;;;9.40;82.23;98891.08;105972;1277;107784;-71
2022/01/01 06:38:15;;;;;;;15.40;6.70;;;;;;;9.39;82.35;98893.96;105852;1277;95242;-70
2022/01/01 06:40:44;;;;;;;14.20;6.30;;;;;;;9.39;82.36;98894.33;106001;1277;95188;-69
2022/01/01 06:43:16;;;;;;;14.70;6.50;;;;;;;9.38;82.27;98897.77;106008;1277;107962;-69
2022/01/01 06:45:46;;;;;;;15.50;6.30;;;;;;;9.37;82.27;98906.36;105981;1276;95272;-70
2022/01/01 06:48:13;;;;;;;16.20;7.00;;;;;;;9.36;82.17;98904.48;105977;1277;106176;-70
2022/01/01 06:50:41;;;;;;;17.00;6.80;;;;;;;9.35;82.21;98905.04;105974;1277;95201;-69
2022/01/01 06:53:12;;;;;;;16.30;7.50;;;;;;;9.36;82.27;98907.86;105960;1277;94321;-67
2022/01/01 06:55:42;;;;;;;17.00;7.00;;;;;;;9.36;82.23;98915.44;106006;1277;108731;-69
2022/01/01 06:58:10;;;;;;;18.40;7.60;;;;;;;9.36;82.17;98917.35;105886;1277;95009;-70
2022/01/01 07:00:37;;;;;;;19.20;7.30;;;;;;;9.37;82.22;98917.80;105950;1277;107806;-69
2022/01/01 07:03:07;;;;;;;17.70;7.30;;;;;;;9.38;82.29;98917.37;105992;1276;96230;-69
2022/01/01 07:05:37;;;;;;;17.40;7.00;;;;;;;9.39;82.47;98924.07;105978;1277;95255;-68
2022/01/01 07:08:05;;;;;;;14.80;6.20;;;;;;;9.39;82.44;98922.45;105971;1277;108591;-69
2022/01/01 07:10:32;;;;;;;16.80;6.40;;;;;;;9.41;82.39;98924.15;105968;1277;94263;-70
2022/01/01 07:13:00;;;;;;;17.60;7.10;;;;;;;9.42;82.37;98926.04;106045;1277;107949;-71
2022/01/01 07:15:28;;;;;;;15.70;6.50;;;;;;;9.42;82.40;98920.72;105957;1276;94318;-69
2022/01/01 07:17:56;;;;;;;15.90;6.50;;;;;;;9.43;82.39;98918.67;105866;1277;95167;-69
2022/01/01 07:20:23;;;;;;;15.30;6.30;;;;;;;9.44;82.30;98925.30;106053;1277;107898;-68
2022/01/01 07:22:51;;;;;;;15.30;6.30;;;;;;;9.45;82.42;98926.65;105986;1274;94231;-70
2022/01/01 07:25:20;;;;;;;13.50;5.30;;;;;;;9.46;82.36;98936.51;105934;1276;107715;-70
2022/01/01 07:27:48;;;;;;;16.50;6.30;;;;;;;9.47;82.50;98940.17;105947;1277;96519;-70
2022/01/01 07:30:16;;;;;;;15.70;6.30;;;;;;;9.49;82.38;98941.81;105995;1276;96596;-70
2022/01/01 07:32:50;;;;;;;15.90;6.70;;;;;;;9.49;82.45;98941.08;105963;1277;110042;-70
2022/01/01 07:35:21;;;;;;;13.10;6.00;;;;;;;9.50;82.32;98945.96;106004;1277;96542;-69
2022/01/01 07:37:49;;;;;;;15.50;6.30;;;;;;;9.52;82.47;98948.85;106053;1277;107835;-70
2022/01/01 07:40:17;;;;;;;13.00;5.60;;;;;;;9.52;82.45;98946.52;106017;1276;96402;-71
2022/01/01 07:42:48;;;;;;;15.50;5.80;;;;;;;9.53;82.45;98946.81;105992;1277;96551;-70
2022/01/01 07:45:16;;;;;;;16.00;6.10;;;;;;;9.54;82.59;98948.89;106004;1277;109941;-70
2022/01/01 07:47:44;;;;;;;13.90;5.60;;;;;;;9.56;82.52;98951.23;106141;1277;96516;-70
2022/01/01 07:50:12;;;;;;;15.50;6.50;;;;;;;9.58;82.46;98952.33;105978;1277;107800;-70
2022/01/01 07:52:42;;;;;;;15.40;6.20;;;;;;;9.60;82.57;98954.32;105986;1277;95116;-70
2022/01/01 07:55:12;;;;;;;14.80;5.60;;;;;;;9.62;82.45;98955.05;105996;1277;94981;-71
2022/01/01 07:57:40;;;;;;;14.70;6.30;;;;;;;9.62;82.44;98964.59;105864;1277;111492;-70
2022/01/01 08:00:10;;;;;;;11.80;5.20;;;;;;;9.64;82.44;98964.67;106043;1277;96565;-70
2022/01/01 08:02:40;;;;;;;14.80;5.90;;;;;;;9.65;82.50;98966.52;106081;1277;106400;-70
2022/01/01 08:05:10;;;;;;;15.10;5.80;;;;;;;9.66;82.50;98967.33;106046;1277;95170;-70
2022/01/01 08:07:40;;;;;;;14.20;6.30;;;;;;;9.67;82.63;98972.41;106063;1276;96551;-71
2022/01/01 08:10:28;;;;;;;17.70;6.40;;;;;;;9.68;82.51;98972.34;106000;1277;110038;-69
2022/01/01 08:12:56;;;;;;;13.30;5.50;;;;;;;9.70;82.59;98975.60;106007;1277;94322;-70
2022/01/01 08:15:24;;;;;;;12.70;5.20;;;;;;;9.71;82.43;98979.54;106107;1277;108395;-71
2022/01/01 08:17:52;;;;;;;13.20;5.20;;;;;;;9.73;82.51;98982.97;106088;1277;96583;-74
2022/01/01 08:20:22;;;;;;;11.50;4.80;;;;;;;9.75;82.50;98982.11;105993;1277;96520;-74
2022/01/01 08:22:50;;;;;;;12.70;4.80;;;;;;;9.77;82.63;98987.80;105970;1277;109305;-70
2022/01/01 08:25:20;;;;;;;9.80;4.40;;;;;;;9.79;82.55;98991.36;105948;1277;96613;-71
2022/01/01 08:27:49;;;;;;;11.70;4.70;;;;;;;9.82;82.47;98991.55;105979;1277;107727;-69
2022/01/01 08:30:16;;;;;;;11.40;4.60;;;;;;;9.85;82.55;99000.22;105987;1277;95664;-70
2022/01/01 08:32:44;;;;;;;10.80;4.70;;;;;;;9.87;82.40;99000.57;105989;1277;96696;-69
2022/01/01 08:35:14;;;;;;;10.80;4.30;;;;;;;9.87;82.48;99003.57;105996;1277;109938;-70
2022/01/01 08:37:43;;;;;;;9.60;4.40;;;;;;;9.88;82.53;99004.21;106059;1277;96560;-71
2022/01/01 08:40:11;;;;;;;9.10;4.30;;;;;;;9.89;82.60;99004.52;105965;1276;107784;-73
2022/01/01 08:42:39;;;;;;;9.10;4.40;;;;;;;9.91;82.49;99008.98;106020;1277;96504;-69
2022/01/01 08:45:09;;;;;;;10.60;4.00;;;;;;;9.94;82.54;99006.09;106008;1277;96492;-70
2022/01/01 08:47:37;;;;;;;10.00;3.70;;;;;;;9.97;82.51;99014.35;105965;1277;110600;-69
2022/01/01 08:50:06;;;;;;;9.00;3.90;;;;;;;10.03;82.57;99016.30;105991;1277;94264;-68
2022/01/01 08:52:35;;;;;;;5.60;3.10;;;;;;;10.08;82.45;99016.27;106002;1277;107733;-70
2022/01/01 08:55:05;;;;;;;6.20;3.20;;;;;;;10.15;82.44;99020.39;105966;1277;96577;-70
2022/01/01 08:57:35;;;;;;;6.50;3.20;;;;;;;10.24;82.49;99019.00;106011;1277;96500;-69
2022/01/01 09:00:08;;;;;;;7.40;3.20;;;;;;;10.32;82.56;99015.11;105956;1277;109948;-69
2022/01/01 09:02:38;;;;;;;8.30;3.40;;;;;;;10.37;82.43;99023.27;106013;1277;96492;-69
2022/01/01 09:05:08;;;;;;;8.40;3.40;;;;;;;10.39;82.41;99032.17;105955;1274;107727;-67
2022/01/01 09:07:36;;;;;;;7.40;3.30;;;;;;;10.41;82.43;99032.20;106126;1274;96654;-68
2022/01/01 09:10:07;;;;;;;6.80;4.00;;;;;;;10.42;82.39;99027.52;106150;1274;95054;-68
2022/01/01 09:12:36;;;;;;;4.00;2.60;;;;;;;10.42;82.44;99031.62;106056;1274;109946;-69
2022/01/01 09:15:06;;;;;;;10.10;3.80;;;;;;;10.41;82.24;99033.11;105950;1277;96377;-68
2022/01/01 09:17:34;;;;;;;6.10;3.30;;;;;;;10.40;82.37;99037.79;105938;1277;108405;-68
2022/01/01 09:20:04;;;;;;;6.70;3.20;;;;;;;10.39;82.27;99043.66;105938;1274;96651;-69
2022/01/01 09:22:32;;;;;;;9.10;3.60;;;;;;;10.40;82.40;99043.83;105935;1277;96573;-70
2022/01/01 09:25:00;;;;;;;6.90;3.20;;;;;;;10.41;82.26;99047.27;105962;1274;109986;-69
2022/01/01 09:27:27;;;;;;;8.60;3.40;;;;;;;10.41;82.30;99050.61;105951;1274;96572;-67
2022/01/01 09:29:58;;;;;;;7.20;3.20;;;;;;;10.43;82.43;99051.73;105943;1274;108396;-69
2022/01/01 09:32:26;;;;;;;9.10;3.70;;;;;;;10.43;82.26;99051.71;105925;1274;94232;-69
2022/01/01 09:34:55;;;;;;;8.30;3.30;;;;;;;10.44;82.35;99057.33;106043;1274;95297;-70
2022/01/01 09:37:25;;;;;;;7.40;3.30;;;;;;;10.46;82.35;99056.70;106105;1274;110675;-68
2022/01/01 09:40:00;;;;;;;7.70;3.00;;;;;;;10.46;82.41;99056.49;106073;1274;96600;-69
2022/01/01 09:42:30;;;;;;;6.50;3.00;;;;;;;10.47;82.35;99056.24;106029;1274;106708;-69
2022/01/01 09:45:04;;;;;;;7.50;3.10;;;;;;;10.47;82.35;99059.77;106051;1274;96648;-70
2022/01/01 09:47:35;;;;;;;9.30;3.90;;;;;;;10.47;82.31;99062.09;106183;1274;96390;-69
2022/01/01 09:50:08;;;;;;;9.80;3.90;;;;;;;10.48;82.40;99059.55;106052;1274;110043;-71
2022/01/01 09:52:39;;;;;;;9.10;3.70;;;;;;;10.49;82.33;99063.23;106110;1274;94231;-70
2022/01/01 09:55:09;;;;;;;7.10;3.70;;;;;;;10.50;82.21;99058.67;106125;1274;107698;-70
2022/01/01 09:57:38;;;;;;;11.00;3.70;;;;;;;10.53;82.28;99057.22;106077;1274;96660;-70
2022/01/01 10:00:08;;;;;;;9.30;3.70;;;;;;;10.55;82.29;99055.14;106091;1274;96526;-69
2022/01/01 10:02:36;;;;;;;10.20;3.90;;;;;;;10.56;82.35;99055.06;106058;1274;110748;-69
2022/01/01 10:05:06;;;;;;;7.20;3.30;;;;;;;10.56;82.30;99060.58;106136;1274;96512;-67
2022/01/01 10:07:34;;;;;;;10.30;3.40;;;;;;;10.56;82.35;99065.54;106177;1274;107794;-72
2022/01/01 10:10:26;;;;;;;10.10;3.80;;;;;;;10.57;82.26;99060.31;106201;1274;96526;-70
2022/01/01 10:12:57;;;;;;;7.60;3.80;;;;;;;10.64;82.25;99059.11;106162;1274;94311;-69
2022/01/01 10:15:24;;;;;;;8.00;3.60;;;;;;;10.74;82.32;99065.12;106119;1274;110106;-69
2022/01/01 10:17:53;;;;;;;9.30;4.10;;;;;;;10.80;82.20;99068.05;106127;1274;96602;-69
2022/01/01 10:20:24;;;;;;;9.90;3.90;;;;;;;10.83;82.19;99065.35;106059;1274;107717;-73
2022/01/01 10:22:53;;;;;;;8.20;3.80;;;;;;;10.82;82.07;99064.36;106017;1274;96511;-73
2022/01/01 10:28:12;;;;;;;10.40;4.50;;;;;;;10.77;82.12;99065.79;106035;1274;110632;-76
2022/01/01 10:30:40;;;;;;;11.60;4.10;;;;;;;10.79;82.24;99062.80;105983;1274;96509;-71
2022/01/01 10:33:14;;;;;;;9.20;4.00;;;;;;;10.80;82.06;99058.13;105987;1274;107807;-73
2022/01/01 10:35:44;;;;;;;9.40;3.80;;;;;;;10.79;82.13;99062.27;106029;1274;96548;-70
2022/01/01 10:38:22;;;;;;;11.00;4.50;;;;;;;10.80;82.15;99062.57;106108;1274;96505;-73
2022/01/01 10:40:57;;;;;;;10.10;4.10;;;;;;;10.77;82.14;99060.78;106099;1274;110020;-75
2022/01/01 10:43:44;;;;;;;12.10;4.70;;;;;;;10.75;82.22;99063.13;106008;1274;96555;-71
2022/01/01 10:46:16;;;;;;;9.70;4.30;;;;;;;10.72;82.19;99061.73;105991;1274;107742;-73
2022/01/01 10:51:16;;;;;;;6.30;3.20;;;;;;;10.71;82.28;99056.80;105980;1274;94641;-71
2022/01/01 10:53:59;;;;;;;9.40;4.00;;;;;;;10.69;82.06;99054.80;105975;1274;109934;-72
2022/01/01 10:56:37;;;;;;;9.70;3.90;;;;;;;10.66;82.17;99050.10;106046;1274;96360;-72
2022/01/01 10:59:09;;;;;;;10.20;3.60;;;;;;;10.61;82.18;99057.70;106045;1274;106531;-74
2022/01/01 11:01:48;;;;;;;9.70;4.00;;;;;;;10.60;82.06;99050.54;106050;1274;96604;-73
2022/01/01 11:04:22;;;;;;;9.70;4.30;;;;;;;10.61;82.27;99052.08;105968;1274;97221;-73
2022/01/01 11:06:50;;;;;;;12.10;5.40;;;;;;;10.59;82.25;99049.85;105879;1274;110051;-74
2022/01/01 11:09:19;;;;;;;14.40;5.00;;;;;;;10.58;82.19;99048.71;106001;1274;96522;-71
2022/01/01 11:11:47;;;;;;;10.70;4.30;;;;;;;10.57;82.11;99050.35;105813;1274;107671;-68
2022/01/01 11:14:19;;;;;;;11.50;4.40;;;;;;;10.55;82.12;99047.36;105935;1274;96398;-72
2022/01/01 11:16:47;;;;;;;13.00;5.00;;;;;;;10.51;82.27;99046.78;105967;1274;94574;-73
2022/01/01 11:19:15;;;;;;;10.80;4.00;;;;;;;10.46;82.23;99041.23;106106;1274;109098;-73
2022/01/01 11:21:46;;;;;;;12.50;4.10;;;;;;;10.42;82.24;99044.53;106003;1274;96612;-72
2022/01/01 11:24:15;;;;;;;15.10;5.80;;;;;;;10.38;82.09;99043.55;105922;1274;106097;-72
2022/01/01 11:26:45;;;;;;;11.60;4.50;;;;;;;10.36;82.20;99044.45;105960;1274;96526;-70
2022/01/01 11:29:16;;;;;;;9.70;3.80;;;;;;;10.33;82.17;99044.27;105986;1274;97230;-71
2022/01/01 11:31:46;;;;;;;8.30;4.00;;;;;;;10.31;82.14;99044.08;105984;1274;113436;-71
2022/01/01 11:34:18;;;;;;;10.40;4.60;;;;;;;10.31;82.17;99044.64;106024;1274;96530;-69
2022/01/01 11:36:47;;;;;;;14.60;5.20;;;;;;;10.32;82.22;99050.41;106077;1273;107787;-69
2022/01/01 11:39:19;;;;;;;10.60;4.50;;;;;;;10.34;82.08;99050.80;106056;1274;96630;-71